createdAt,value
2017-10-17T00:00:26.371Z,0
2017-10-17T00:01:25.708Z,0
2017-10-17T00:02:26.045Z,0
2017-10-17T00:03:26.026Z,0
2017-10-17T00:04:26.023Z,0
2017-10-17T00:05:25.389Z,0
2017-10-17T00:06:26.365Z,0
2017-10-17T00:07:26.016Z,0
2017-10-17T00:08:26.024Z,0
2017-10-17T00:09:26.011Z,0
2017-10-17T00:10:26.337Z,0
2017-10-17T00:11:25.692Z,0
2017-10-17T00:12:26.035Z,0
2017-10-17T00:13:25.682Z,0
2017-10-17T00:14:26.003Z,0
2017-10-17T00:15:26.905Z,0
2017-10-17T00:16:26.008Z,0
2017-10-17T00:17:25.691Z,0
2017-10-17T00:18:26.015Z,0
2017-10-17T00:19:25.999Z,0
2017-10-17T00:20:26.341Z,0
2017-10-17T00:21:25.995Z,0
2017-10-17T00:22:25.670Z,0
2017-10-17T00:23:25.355Z,0
2017-10-17T00:24:26.313Z,0
2017-10-17T00:25:25.359Z,0
2017-10-17T00:26:25.979Z,0
2017-10-17T00:27:25.981Z,0
2017-10-17T00:28:25.986Z,0
2017-10-17T00:29:26.107Z,0
2017-10-17T00:30:26.322Z,0
2017-10-17T00:31:25.976Z,0
2017-10-17T00:32:25.983Z,0
2017-10-17T00:33:25.657Z,0
2017-10-17T00:34:25.986Z,0
2017-10-17T00:35:25.659Z,0
2017-10-17T00:36:26.288Z,0
2017-10-17T00:37:26.335Z,0
2017-10-17T00:38:25.966Z,0
2017-10-17T00:39:25.729Z,0
2017-10-17T00:40:26.293Z,0
2017-10-17T00:41:25.640Z,0
2017-10-17T00:42:26.280Z,0
2017-10-17T00:43:25.953Z,0
2017-10-17T00:44:26.809Z,0
2017-10-17T00:45:25.968Z,0
2017-10-17T00:46:26.268Z,0
2017-10-17T00:47:26.272Z,0
2017-10-17T00:48:25.621Z,0
2017-10-17T00:49:25.944Z,0
2017-10-17T00:50:25.943Z,0
2017-10-17T00:51:25.623Z,0
2017-10-17T00:52:25.936Z,0
2017-10-17T00:53:26.291Z,0
2017-10-17T00:54:26.268Z,0
2017-10-17T00:55:25.610Z,0
2017-10-17T00:56:26.254Z,0
2017-10-17T00:57:25.957Z,0
2017-10-17T00:58:25.948Z,0
2017-10-17T00:59:26.368Z,0
2017-10-17T01:00:26.276Z,0
2017-10-17T01:01:26.267Z,0
2017-10-17T01:02:25.923Z,0
2017-10-17T01:03:26.239Z,0
2017-10-17T01:04:25.589Z,0
2017-10-17T01:05:25.594Z,0
2017-10-17T01:06:25.585Z,0
2017-10-17T01:07:25.905Z,0
2017-10-17T01:08:25.907Z,0
2017-10-17T01:09:25.586Z,0
2017-10-17T01:10:25.268Z,0
2017-10-17T01:11:25.932Z,0
2017-10-17T01:12:25.590Z,0
2017-10-17T01:13:26.235Z,0
2017-10-17T01:14:27.647Z,0
2017-10-17T01:15:25.894Z,0
2017-10-17T01:16:26.212Z,0
2017-10-17T01:17:25.560Z,0
2017-10-17T01:18:25.929Z,0
2017-10-17T01:19:26.211Z,0
2017-10-17T01:20:25.882Z,0
2017-10-17T01:21:26.219Z,0
2017-10-17T01:22:25.902Z,0
2017-10-17T01:23:26.508Z,0
2017-10-17T01:24:26.026Z,0
2017-10-17T01:25:25.551Z,0
2017-10-17T01:26:25.883Z,0
2017-10-17T01:27:25.877Z,0
2017-10-17T01:28:25.877Z,0
2017-10-17T01:29:28.456Z,0
2017-10-17T01:30:25.868Z,0
2017-10-17T01:31:25.528Z,0
2017-10-17T01:32:25.851Z,0
2017-10-17T01:33:25.528Z,0
2017-10-17T01:34:26.184Z,0
2017-10-17T01:35:25.861Z,0
2017-10-17T01:36:25.527Z,0
2017-10-17T01:37:26.183Z,0
2017-10-17T01:38:25.518Z,0
2017-10-17T01:39:26.150Z,0
2017-10-17T01:40:26.164Z,0
2017-10-17T01:41:25.191Z,0
2017-10-17T01:42:26.165Z,0
2017-10-17T01:43:25.522Z,0
2017-10-17T01:44:25.520Z,0
2017-10-17T01:45:26.179Z,0
2017-10-17T01:46:25.496Z,0
2017-10-17T01:47:25.508Z,0
2017-10-17T01:48:26.133Z,0
2017-10-17T01:49:25.820Z,0
2017-10-17T01:50:25.809Z,0
2017-10-17T01:51:25.804Z,0
2017-10-17T01:52:26.123Z,0
2017-10-17T01:53:25.807Z,0
2017-10-17T01:54:25.491Z,0
2017-10-17T01:55:26.121Z,0
2017-10-17T01:56:25.800Z,0
2017-10-17T01:57:26.127Z,0
2017-10-17T01:58:26.110Z,0
2017-10-17T01:59:25.475Z,0
2017-10-17T02:00:26.329Z,0
2017-10-17T02:01:25.783Z,0
2017-10-17T02:02:26.106Z,0
2017-10-17T02:03:25.473Z,0
2017-10-17T02:04:25.478Z,0
2017-10-17T02:05:25.780Z,0
2017-10-17T02:06:25.453Z,0
2017-10-17T02:07:25.788Z,0
2017-10-17T02:08:26.109Z,0
2017-10-17T02:09:25.456Z,0
2017-10-17T02:10:26.090Z,0
2017-10-17T02:11:26.088Z,0
2017-10-17T02:12:26.084Z,0
2017-10-17T02:13:25.428Z,0
2017-10-17T02:14:25.752Z,0
2017-10-17T02:15:26.870Z,0
2017-10-17T02:16:26.082Z,0
2017-10-17T02:17:25.757Z,0
2017-10-17T02:18:25.743Z,0
2017-10-17T02:19:25.736Z,0
2017-10-17T02:20:26.217Z,0
2017-10-17T02:21:25.735Z,0
2017-10-17T02:22:25.732Z,0
2017-10-17T02:23:26.069Z,0
2017-10-17T02:24:25.745Z,0
2017-10-17T02:25:25.415Z,0
2017-10-17T02:26:25.414Z,0
2017-10-17T02:27:25.408Z,0
2017-10-17T02:28:25.713Z,0
2017-10-17T02:29:25.719Z,0
2017-10-17T02:30:26.168Z,0
2017-10-17T02:31:26.034Z,0
2017-10-17T02:32:26.053Z,0
2017-10-17T02:33:25.705Z,0
2017-10-17T02:34:25.396Z,0
2017-10-17T02:35:26.022Z,0
2017-10-17T02:36:26.025Z,0
2017-10-17T02:37:26.025Z,0
2017-10-17T02:38:26.021Z,0
2017-10-17T02:39:26.022Z,0
2017-10-17T02:40:25.054Z,0
2017-10-17T02:41:26.020Z,0
2017-10-17T02:42:25.042Z,0
2017-10-17T02:43:26.021Z,0
2017-10-17T02:44:25.674Z,0
2017-10-17T02:45:26.208Z,0
2017-10-17T02:46:25.669Z,0
2017-10-17T02:47:25.672Z,0
2017-10-17T02:48:25.341Z,0
2017-10-17T02:49:25.660Z,0
2017-10-17T02:50:25.659Z,0
2017-10-17T02:51:25.986Z,0
2017-10-17T02:52:25.651Z,0
2017-10-17T02:53:25.652Z,0
2017-10-17T02:54:25.653Z,0
2017-10-17T02:55:25.649Z,0
2017-10-17T02:56:25.653Z,0
2017-10-17T02:57:25.335Z,0
2017-10-17T02:58:25.648Z,0
2017-10-17T02:59:25.970Z,0
2017-10-17T03:00:26.906Z,0
2017-10-17T03:01:25.952Z,0
2017-10-17T03:02:25.996Z,0
2017-10-17T03:03:25.952Z,0
2017-10-17T03:04:25.299Z,0
2017-10-17T03:05:25.301Z,0
2017-10-17T03:06:25.625Z,0
2017-10-17T03:07:25.940Z,0
2017-10-17T03:08:25.941Z,0
2017-10-17T03:09:25.287Z,0
2017-10-17T03:10:24.964Z,0
2017-10-17T03:11:25.636Z,0
2017-10-17T03:12:25.941Z,0
2017-10-17T03:13:25.920Z,0
2017-10-17T03:14:25.270Z,0
2017-10-17T03:15:24.947Z,0
2017-10-17T03:16:25.591Z,0
2017-10-17T03:17:25.264Z,0
2017-10-17T03:18:25.592Z,0
2017-10-17T03:19:25.914Z,0
2017-10-17T03:20:25.574Z,0
2017-10-17T03:21:25.583Z,0
2017-10-17T03:22:25.916Z,0
2017-10-17T03:23:25.576Z,0
2017-10-17T03:24:25.250Z,0
2017-10-17T03:25:25.249Z,0
2017-10-17T03:26:25.242Z,0
2017-10-17T03:27:25.897Z,0
2017-10-17T03:28:25.578Z,0
2017-10-17T03:29:25.551Z,0
2017-10-17T03:30:25.558Z,0
2017-10-17T03:31:26.102Z,0
2017-10-17T03:32:25.554Z,0
2017-10-17T03:33:25.580Z,0
2017-10-17T03:34:25.870Z,0
2017-10-17T03:35:25.877Z,0
2017-10-17T03:36:25.207Z,0
2017-10-17T03:37:25.531Z,0
2017-10-17T03:38:25.215Z,0
2017-10-17T03:39:25.209Z,0
2017-10-17T03:40:25.846Z,0
2017-10-17T03:41:25.199Z,0
2017-10-17T03:42:25.213Z,0
2017-10-17T03:43:25.210Z,0
2017-10-17T03:44:25.526Z,0
2017-10-17T03:45:25.524Z,0
2017-10-17T03:46:24.864Z,0
2017-10-17T03:47:25.524Z,0
2017-10-17T03:48:25.826Z,0
2017-10-17T03:49:25.192Z,0
2017-10-17T03:50:25.188Z,0
2017-10-17T03:51:25.177Z,0
2017-10-17T03:52:25.828Z,0
2017-10-17T03:53:25.484Z,0
2017-10-17T03:54:25.483Z,0
2017-10-17T03:55:24.525Z,0
2017-10-17T03:56:25.489Z,0
2017-10-17T03:57:24.848Z,0
2017-10-17T03:58:24.518Z,0
2017-10-17T03:59:25.467Z,0
2017-10-17T04:00:25.466Z,0
2017-10-17T04:01:25.931Z,0
2017-10-17T04:02:25.469Z,0
2017-10-17T04:03:25.790Z,0
2017-10-17T04:04:25.785Z,0
2017-10-17T04:05:25.139Z,0
2017-10-17T04:06:25.782Z,0
2017-10-17T04:07:25.127Z,0
2017-10-17T04:08:24.807Z,0
2017-10-17T04:09:25.443Z,0
2017-10-17T04:10:25.787Z,0
2017-10-17T04:11:25.126Z,0
2017-10-17T04:12:24.806Z,0
2017-10-17T04:13:24.787Z,0
2017-10-17T04:14:25.439Z,0
2017-10-17T04:15:25.432Z,0
2017-10-17T04:16:25.450Z,0
2017-10-17T04:17:25.416Z,0
2017-10-17T04:18:25.424Z,0
2017-10-17T04:19:25.105Z,0
2017-10-17T04:20:25.745Z,0
2017-10-17T04:21:25.417Z,0
2017-10-17T04:22:25.423Z,0
2017-10-17T04:23:25.407Z,0
2017-10-17T04:24:25.396Z,0
2017-10-17T04:25:25.403Z,0
2017-10-17T04:26:25.714Z,0
2017-10-17T04:27:25.761Z,0
2017-10-17T04:28:25.062Z,0
2017-10-17T04:29:25.382Z,0
2017-10-17T04:30:25.381Z,0
2017-10-17T04:31:29.604Z,0
2017-10-17T04:32:25.371Z,0
2017-10-17T04:33:25.369Z,0
2017-10-17T04:34:25.061Z,0
2017-10-17T04:35:25.371Z,0
2017-10-17T04:36:25.363Z,0
2017-10-17T04:37:25.054Z,0
2017-10-17T04:38:25.672Z,0
2017-10-17T04:39:24.708Z,0
2017-10-17T04:40:25.341Z,0
2017-10-17T04:41:25.348Z,0
2017-10-17T04:42:25.670Z,0
2017-10-17T04:43:24.702Z,0
2017-10-17T04:44:25.650Z,0
2017-10-17T04:45:25.669Z,0
2017-10-17T04:46:25.120Z,0
2017-10-17T04:47:25.641Z,0
2017-10-17T04:48:25.333Z,0
2017-10-17T04:49:25.679Z,0
2017-10-17T04:50:25.318Z,0
2017-10-17T04:51:25.307Z,0
2017-10-17T04:52:24.989Z,0
2017-10-17T04:53:25.300Z,0
2017-10-17T04:54:25.291Z,0
2017-10-17T04:55:24.652Z,0
2017-10-17T04:56:25.623Z,0
2017-10-17T04:57:24.978Z,0
2017-10-17T04:58:25.621Z,0
2017-10-17T04:59:24.958Z,0
2017-10-17T05:00:24.962Z,0
2017-10-17T05:01:25.283Z,0
2017-10-17T05:02:27.014Z,0
2017-10-17T05:03:25.263Z,0
2017-10-17T05:04:25.269Z,0
2017-10-17T05:05:25.577Z,0
2017-10-17T05:06:25.257Z,0
2017-10-17T05:07:25.253Z,0
2017-10-17T05:08:25.251Z,0
2017-10-17T05:09:25.569Z,0
2017-10-17T05:10:24.620Z,0
2017-10-17T05:11:25.248Z,0
2017-10-17T05:12:25.577Z,0
2017-10-17T05:13:25.235Z,0
2017-10-17T05:14:24.907Z,0
2017-10-17T05:15:24.586Z,0
2017-10-17T05:16:24.575Z,0
2017-10-17T05:17:28.807Z,0
2017-10-17T05:18:25.549Z,0
2017-10-17T05:19:24.896Z,0
2017-10-17T05:20:24.886Z,0
2017-10-17T05:21:24.883Z,0
2017-10-17T05:22:25.208Z,0
2017-10-17T05:23:24.878Z,0
2017-10-17T05:24:24.541Z,0
2017-10-17T05:25:25.197Z,0
2017-10-17T05:26:24.858Z,0
2017-10-17T05:27:24.851Z,0
2017-10-17T05:28:24.535Z,0
2017-10-17T05:29:24.848Z,0
2017-10-17T05:30:25.501Z,0
2017-10-17T05:31:25.168Z,0
2017-10-17T05:32:24.827Z,0
2017-10-17T05:33:25.171Z,0
2017-10-17T05:34:24.512Z,0
2017-10-17T05:35:24.828Z,0
2017-10-17T05:36:25.486Z,0
2017-10-17T05:37:25.149Z,0
2017-10-17T05:38:25.452Z,0
2017-10-17T05:39:24.491Z,0
2017-10-17T05:40:25.258Z,0
2017-10-17T05:41:25.454Z,5
2017-10-17T05:42:25.137Z,5
2017-10-17T05:43:25.432Z,5
2017-10-17T05:44:25.430Z,5
2017-10-17T05:45:24.877Z,5
2017-10-17T05:46:25.114Z,5
2017-10-17T05:47:24.774Z,5
2017-10-17T05:48:24.450Z,10
2017-10-17T05:49:24.438Z,10
2017-10-17T05:50:24.455Z,10
2017-10-17T05:51:25.396Z,10
2017-10-17T05:52:25.105Z,10
2017-10-17T05:53:25.392Z,15
2017-10-17T05:54:24.744Z,15
2017-10-17T05:55:25.393Z,15
2017-10-17T05:56:25.054Z,15
2017-10-17T05:57:24.430Z,15
2017-10-17T05:58:25.058Z,20
2017-10-17T05:59:25.045Z,20
2017-10-17T06:00:25.185Z,20
2017-10-17T06:01:25.054Z,20
2017-10-17T06:02:28.108Z,25
2017-10-17T06:03:24.729Z,25
2017-10-17T06:04:25.014Z,25
2017-10-17T06:05:24.848Z,25
2017-10-17T06:06:24.701Z,30
2017-10-17T06:07:25.002Z,30
2017-10-17T06:08:24.677Z,30
2017-10-17T06:09:24.991Z,35
2017-10-17T06:10:25.117Z,35
2017-10-17T06:11:24.991Z,35
2017-10-17T06:12:25.316Z,35
2017-10-17T06:13:25.322Z,40
2017-10-17T06:14:24.659Z,40
2017-10-17T06:15:24.896Z,40
2017-10-17T06:16:24.967Z,45
2017-10-17T06:17:24.640Z,45
2017-10-17T06:18:24.633Z,45
2017-10-17T06:19:24.634Z,45
2017-10-17T06:20:25.303Z,50
2017-10-17T06:21:24.958Z,50
2017-10-17T06:22:24.933Z,50
2017-10-17T06:23:24.611Z,55
2017-10-17T06:24:24.926Z,55
2017-10-17T06:25:25.610Z,55
2017-10-17T06:26:24.915Z,55
2017-10-17T06:27:24.588Z,60
2017-10-17T06:28:24.292Z,60
2017-10-17T06:29:24.260Z,60
2017-10-17T06:30:24.906Z,60
2017-10-17T06:31:25.216Z,65
2017-10-17T06:32:24.593Z,65
2017-10-17T06:33:25.204Z,65
2017-10-17T06:34:24.879Z,65
2017-10-17T06:35:25.521Z,70
2017-10-17T06:36:24.237Z,70
2017-10-17T06:37:24.872Z,70
2017-10-17T06:38:24.865Z,70
2017-10-17T06:39:25.193Z,75
2017-10-17T06:40:25.204Z,75
2017-10-17T06:41:24.550Z,75
2017-10-17T06:42:24.850Z,75
2017-10-17T06:43:25.194Z,75
2017-10-17T06:44:24.847Z,80
2017-10-17T06:45:24.848Z,80
2017-10-17T06:46:24.836Z,80
2017-10-17T06:47:25.212Z,80
2017-10-17T06:48:24.838Z,80
2017-10-17T06:49:24.830Z,85
2017-10-17T06:50:24.568Z,85
2017-10-17T06:51:24.825Z,85
2017-10-17T06:52:24.497Z,85
2017-10-17T06:53:24.822Z,90
2017-10-17T06:54:25.144Z,90
2017-10-17T06:55:24.824Z,90
2017-10-17T06:56:24.494Z,90
2017-10-17T06:57:24.161Z,90
2017-10-17T06:58:24.796Z,95
2017-10-17T06:59:24.473Z,95
2017-10-17T07:00:24.474Z,95
2017-10-17T07:01:24.795Z,100
2017-10-17T07:02:24.144Z,100
2017-10-17T07:03:25.926Z,100
2017-10-17T07:04:24.798Z,110
2017-10-17T07:05:25.099Z,125
2017-10-17T07:06:24.442Z,130
2017-10-17T07:07:25.113Z,135
2017-10-17T07:08:24.445Z,140
2017-10-17T07:09:24.776Z,145
2017-10-17T07:10:25.083Z,145
2017-10-17T07:11:24.121Z,145
2017-10-17T07:12:24.442Z,150
2017-10-17T07:13:24.765Z,150
2017-10-17T07:14:24.112Z,150
2017-10-17T07:15:24.788Z,150
2017-10-17T07:16:25.085Z,150
2017-10-17T07:17:24.758Z,150
2017-10-17T07:18:24.678Z,150
2017-10-17T07:19:24.437Z,155
2017-10-17T07:20:24.743Z,155
2017-10-17T07:21:24.759Z,155
2017-10-17T07:22:24.476Z,155
2017-10-17T07:23:25.079Z,155
2017-10-17T07:24:24.764Z,160
2017-10-17T07:25:24.129Z,160
2017-10-17T07:26:24.769Z,160
2017-10-17T07:27:24.125Z,160
2017-10-17T07:28:25.107Z,165
2017-10-17T07:29:24.773Z,165
2017-10-17T07:30:24.380Z,165
2017-10-17T07:31:24.779Z,165
2017-10-17T07:32:25.099Z,160
2017-10-17T07:33:29.058Z,165
2017-10-17T07:34:24.802Z,165
2017-10-17T07:35:24.813Z,165
2017-10-17T07:36:24.802Z,165
2017-10-17T07:37:24.478Z,165
2017-10-17T07:38:24.803Z,165
2017-10-17T07:39:24.812Z,165
2017-10-17T07:40:25.135Z,170
2017-10-17T07:41:24.492Z,170
2017-10-17T07:42:24.818Z,170
2017-10-17T07:43:24.498Z,165
2017-10-17T07:44:25.155Z,165
2017-10-17T07:45:25.386Z,170
2017-10-17T07:46:24.839Z,170
2017-10-17T07:47:25.149Z,165
2017-10-17T07:48:24.187Z,170
2017-10-17T07:49:24.499Z,170
2017-10-17T07:50:24.531Z,175
2017-10-17T07:51:24.854Z,175
2017-10-17T07:52:25.173Z,175
2017-10-17T07:53:24.850Z,175
2017-10-17T07:54:25.656Z,175
2017-10-17T07:55:24.870Z,175
2017-10-17T07:56:25.200Z,175
2017-10-17T07:57:25.199Z,180
2017-10-17T07:58:24.874Z,180
2017-10-17T07:59:24.567Z,180
2017-10-17T08:00:24.564Z,180
2017-10-17T08:01:24.246Z,175
2017-10-17T08:02:24.575Z,180
2017-10-17T08:03:25.234Z,180
2017-10-17T08:04:26.974Z,185
2017-10-17T08:05:25.222Z,180
2017-10-17T08:06:24.911Z,180
2017-10-17T08:07:25.228Z,180
2017-10-17T08:08:24.597Z,185
2017-10-17T08:09:24.608Z,190
2017-10-17T08:10:24.612Z,185
2017-10-17T08:11:24.915Z,185
2017-10-17T08:12:24.918Z,185
2017-10-17T08:13:24.593Z,190
2017-10-17T08:14:25.255Z,190
2017-10-17T08:15:24.984Z,190
2017-10-17T08:16:24.604Z,190
2017-10-17T08:17:24.610Z,190
2017-10-17T08:18:24.933Z,190
2017-10-17T08:19:25.258Z,190
2017-10-17T08:20:25.257Z,195
2017-10-17T08:21:25.257Z,195
2017-10-17T08:22:24.929Z,195
2017-10-17T08:23:25.257Z,195
2017-10-17T08:24:24.940Z,195
2017-10-17T08:25:24.940Z,195
2017-10-17T08:26:24.608Z,195
2017-10-17T08:27:24.950Z,195
2017-10-17T08:28:25.261Z,195
2017-10-17T08:29:24.926Z,195
2017-10-17T08:30:25.264Z,200
2017-10-17T08:31:24.299Z,200
2017-10-17T08:32:24.341Z,200
2017-10-17T08:33:25.264Z,200
2017-10-17T08:34:25.462Z,205
2017-10-17T08:35:25.300Z,200
2017-10-17T08:36:24.627Z,200
2017-10-17T08:37:25.267Z,200
2017-10-17T08:38:24.287Z,200
2017-10-17T08:39:24.606Z,200
2017-10-17T08:40:24.951Z,205
2017-10-17T08:41:24.943Z,205
2017-10-17T08:42:24.608Z,205
2017-10-17T08:43:24.608Z,205
2017-10-17T08:44:24.618Z,205
2017-10-17T08:45:24.627Z,195
2017-10-17T08:46:25.255Z,205
2017-10-17T08:47:24.625Z,195
2017-10-17T08:48:24.927Z,205
2017-10-17T08:49:24.292Z,205
2017-10-17T08:50:24.941Z,205
2017-10-17T08:51:24.609Z,205
2017-10-17T08:52:24.657Z,200
2017-10-17T08:53:25.307Z,200
2017-10-17T08:54:24.617Z,200
2017-10-17T08:55:24.958Z,205
2017-10-17T08:56:24.932Z,200
2017-10-17T08:57:24.291Z,200
2017-10-17T08:58:25.274Z,200
2017-10-17T08:59:24.617Z,200
2017-10-17T09:00:25.277Z,200
2017-10-17T09:01:24.613Z,200
2017-10-17T09:02:25.288Z,200
2017-10-17T09:03:24.613Z,200
2017-10-17T09:04:24.950Z,200
2017-10-17T09:05:27.386Z,200
2017-10-17T09:06:25.349Z,200
2017-10-17T09:07:24.944Z,200
2017-10-17T09:08:25.615Z,200
2017-10-17T09:09:24.935Z,200
2017-10-17T09:10:24.939Z,200
2017-10-17T09:11:25.269Z,200
2017-10-17T09:12:24.939Z,200
2017-10-17T09:13:24.942Z,200
2017-10-17T09:14:24.945Z,200
2017-10-17T09:15:24.984Z,200
2017-10-17T09:16:24.620Z,205
2017-10-17T09:17:24.623Z,200
2017-10-17T09:18:24.626Z,200
2017-10-17T09:19:24.617Z,200
2017-10-17T09:20:24.957Z,200
2017-10-17T09:21:25.277Z,200
2017-10-17T09:22:24.956Z,200
2017-10-17T09:23:24.635Z,200
2017-10-17T09:24:24.960Z,200
2017-10-17T09:25:24.632Z,200
2017-10-17T09:26:24.959Z,200
2017-10-17T09:27:25.291Z,200
2017-10-17T09:28:25.303Z,195
2017-10-17T09:29:25.279Z,200
2017-10-17T09:30:25.299Z,195
2017-10-17T09:31:25.030Z,200
2017-10-17T09:32:24.725Z,195
2017-10-17T09:33:24.641Z,200
2017-10-17T09:34:24.647Z,190
2017-10-17T09:35:30.068Z,195
2017-10-17T09:36:24.636Z,200
2017-10-17T09:37:25.296Z,195
2017-10-17T09:38:24.325Z,195
2017-10-17T09:39:24.661Z,195
2017-10-17T09:40:24.649Z,200
2017-10-17T09:41:24.965Z,195
2017-10-17T09:42:25.289Z,195
2017-10-17T09:43:24.979Z,195
2017-10-17T09:44:25.298Z,195
2017-10-17T09:45:25.302Z,195
2017-10-17T09:46:24.992Z,195
2017-10-17T09:47:24.966Z,195
2017-10-17T09:48:24.323Z,195
2017-10-17T09:49:25.288Z,195
2017-10-17T09:50:24.655Z,195
2017-10-17T09:51:24.653Z,195
2017-10-17T09:52:24.970Z,195
2017-10-17T09:53:25.431Z,185
2017-10-17T09:54:24.339Z,200
2017-10-17T09:55:24.651Z,195
2017-10-17T09:56:24.977Z,190
2017-10-17T09:57:24.973Z,195
2017-10-17T09:58:25.309Z,195
2017-10-17T09:59:24.978Z,195
2017-10-17T10:00:25.305Z,195
2017-10-17T10:01:24.978Z,190
2017-10-17T10:02:25.395Z,180
2017-10-17T10:03:24.666Z,190
2017-10-17T10:04:25.318Z,180
2017-10-17T10:05:25.328Z,175
2017-10-17T10:06:26.154Z,180
2017-10-17T10:07:25.003Z,170
2017-10-17T10:08:25.367Z,175
2017-10-17T10:09:25.043Z,175
2017-10-17T10:10:25.016Z,185
2017-10-17T10:11:24.345Z,190
2017-10-17T10:12:24.993Z,195
2017-10-17T10:13:25.005Z,190
2017-10-17T10:14:24.993Z,180
2017-10-17T10:15:25.020Z,185
2017-10-17T10:16:24.999Z,190
2017-10-17T10:17:24.400Z,190
2017-10-17T10:18:25.013Z,185
2017-10-17T10:19:25.327Z,180
2017-10-17T10:20:25.022Z,170
2017-10-17T10:21:25.003Z,175
2017-10-17T10:22:24.693Z,180
2017-10-17T10:23:25.011Z,180
2017-10-17T10:24:25.046Z,180
2017-10-17T10:25:25.047Z,185
2017-10-17T10:26:24.695Z,175
2017-10-17T10:27:24.710Z,175
2017-10-17T10:28:25.032Z,180
2017-10-17T10:29:25.024Z,180
2017-10-17T10:30:25.028Z,185
2017-10-17T10:31:25.028Z,185
2017-10-17T10:32:25.360Z,180
2017-10-17T10:33:24.705Z,180
2017-10-17T10:34:25.347Z,185
2017-10-17T10:35:25.404Z,180
2017-10-17T10:36:27.175Z,180
2017-10-17T10:37:25.358Z,180
2017-10-17T10:38:24.398Z,185
2017-10-17T10:39:24.722Z,185
2017-10-17T10:40:25.385Z,180
2017-10-17T10:41:24.737Z,185
2017-10-17T10:42:24.397Z,180
2017-10-17T10:43:24.788Z,180
2017-10-17T10:44:24.738Z,180
2017-10-17T10:45:24.734Z,185
2017-10-17T10:46:25.049Z,180
2017-10-17T10:47:24.723Z,180
2017-10-17T10:48:25.115Z,180
2017-10-17T10:49:25.084Z,180
2017-10-17T10:50:25.060Z,180
2017-10-17T10:51:24.729Z,175
2017-10-17T10:52:24.732Z,180
2017-10-17T10:53:24.753Z,180
2017-10-17T10:54:25.375Z,180
2017-10-17T10:55:25.098Z,175
2017-10-17T10:56:24.747Z,180
2017-10-17T10:57:25.069Z,180
2017-10-17T10:58:25.403Z,175
2017-10-17T10:59:25.078Z,175
2017-10-17T11:00:25.101Z,165
2017-10-17T11:01:24.763Z,165
2017-10-17T11:02:25.075Z,160
2017-10-17T11:03:24.759Z,155
2017-10-17T11:04:24.766Z,160
2017-10-17T11:05:24.461Z,155
2017-10-17T11:06:26.817Z,160
2017-10-17T11:07:25.422Z,160
2017-10-17T11:08:25.094Z,160
2017-10-17T11:09:24.484Z,165
2017-10-17T11:10:25.132Z,165
2017-10-17T11:11:25.421Z,170
2017-10-17T11:12:25.094Z,170
2017-10-17T11:13:24.780Z,165
2017-10-17T11:14:25.108Z,170
2017-10-17T11:15:25.435Z,170
2017-10-17T11:16:25.441Z,170
2017-10-17T11:17:25.449Z,170
2017-10-17T11:18:25.113Z,170
2017-10-17T11:19:25.162Z,170
2017-10-17T11:20:25.438Z,170
2017-10-17T11:21:25.445Z,170
2017-10-17T11:22:25.352Z,170
2017-10-17T11:23:25.137Z,170
2017-10-17T11:24:25.140Z,165
2017-10-17T11:25:25.158Z,165
2017-10-17T11:26:24.822Z,165
2017-10-17T11:27:25.159Z,165
2017-10-17T11:28:25.157Z,165
2017-10-17T11:29:25.485Z,165
2017-10-17T11:30:24.837Z,165
2017-10-17T11:31:25.477Z,165
2017-10-17T11:32:25.148Z,165
2017-10-17T11:33:24.523Z,165
2017-10-17T11:34:25.483Z,165
2017-10-17T11:35:24.859Z,165
2017-10-17T11:36:25.482Z,165
2017-10-17T11:37:25.427Z,165
2017-10-17T11:38:24.854Z,165
2017-10-17T11:39:25.179Z,165
2017-10-17T11:40:24.853Z,165
2017-10-17T11:41:25.508Z,165
2017-10-17T11:42:25.516Z,165
2017-10-17T11:43:25.189Z,165
2017-10-17T11:44:25.516Z,160
2017-10-17T11:45:24.895Z,160
2017-10-17T11:46:24.229Z,160
2017-10-17T11:47:25.554Z,160
2017-10-17T11:48:25.549Z,160
2017-10-17T11:49:25.220Z,160
2017-10-17T11:50:25.554Z,160
2017-10-17T11:51:25.266Z,160
2017-10-17T11:52:25.219Z,160
2017-10-17T11:53:25.229Z,160
2017-10-17T11:54:25.557Z,160
2017-10-17T11:55:25.234Z,160
2017-10-17T11:56:25.232Z,160
2017-10-17T11:57:24.916Z,160
2017-10-17T11:58:25.269Z,160
2017-10-17T11:59:25.243Z,160
2017-10-17T12:00:25.264Z,160
2017-10-17T12:01:25.566Z,160
2017-10-17T12:02:25.271Z,160
2017-10-17T12:03:25.583Z,160
2017-10-17T12:04:25.277Z,160
2017-10-17T12:05:24.938Z,160
2017-10-17T12:06:25.588Z,160
2017-10-17T12:07:25.196Z,160
2017-10-17T12:08:24.949Z,160
2017-10-17T12:09:25.603Z,160
2017-10-17T12:10:24.974Z,160
2017-10-17T12:11:24.986Z,160
2017-10-17T12:12:24.966Z,160
2017-10-17T12:13:25.301Z,160
2017-10-17T12:14:25.638Z,160
2017-10-17T12:15:24.973Z,160
2017-10-17T12:16:25.312Z,160
2017-10-17T12:17:25.316Z,160
2017-10-17T12:18:24.989Z,160
2017-10-17T12:19:25.335Z,160
2017-10-17T12:20:24.683Z,160
2017-10-17T12:21:25.643Z,160
2017-10-17T12:22:27.320Z,160
2017-10-17T12:23:25.337Z,160
2017-10-17T12:24:25.344Z,160
2017-10-17T12:25:25.652Z,160
2017-10-17T12:26:25.020Z,160
2017-10-17T12:27:25.681Z,160
2017-10-17T12:28:25.673Z,160
2017-10-17T12:29:25.354Z,160
2017-10-17T12:30:25.351Z,160
2017-10-17T12:31:25.373Z,160
2017-10-17T12:32:25.356Z,160
2017-10-17T12:33:25.361Z,160
2017-10-17T12:34:25.398Z,160
2017-10-17T12:35:24.727Z,160
2017-10-17T12:36:25.396Z,160
2017-10-17T12:37:28.086Z,160
2017-10-17T12:38:25.393Z,160
2017-10-17T12:39:25.067Z,160
2017-10-17T12:40:25.076Z,155
2017-10-17T12:41:25.082Z,155
2017-10-17T12:42:25.727Z,155
2017-10-17T12:43:24.751Z,155
2017-10-17T12:44:25.084Z,155
2017-10-17T12:45:25.409Z,155
2017-10-17T12:46:24.776Z,155
2017-10-17T12:47:25.757Z,155
2017-10-17T12:48:25.754Z,155
2017-10-17T12:49:25.427Z,155
2017-10-17T12:50:25.427Z,155
2017-10-17T12:51:25.754Z,155
2017-10-17T12:52:25.776Z,155
2017-10-17T12:53:25.693Z,155
2017-10-17T12:54:25.448Z,155
2017-10-17T12:55:24.804Z,155
2017-10-17T12:56:25.457Z,155
2017-10-17T12:57:25.132Z,150
2017-10-17T12:58:25.816Z,150
2017-10-17T12:59:25.138Z,150
2017-10-17T13:00:25.186Z,150
2017-10-17T13:01:25.461Z,150
2017-10-17T13:02:25.468Z,150
2017-10-17T13:03:24.837Z,150
2017-10-17T13:04:24.831Z,150
2017-10-17T13:05:25.815Z,145
2017-10-17T13:06:25.494Z,145
2017-10-17T13:07:25.500Z,145
2017-10-17T13:08:26.542Z,145
2017-10-17T13:09:25.834Z,145
2017-10-17T13:10:24.873Z,145
2017-10-17T13:11:25.504Z,145
2017-10-17T13:12:25.529Z,145
2017-10-17T13:13:25.845Z,150
2017-10-17T13:14:25.528Z,140
2017-10-17T13:15:25.847Z,140
2017-10-17T13:16:25.203Z,140
2017-10-17T13:17:25.546Z,140
2017-10-17T13:18:25.550Z,140
2017-10-17T13:19:25.857Z,140
2017-10-17T13:20:25.541Z,140
2017-10-17T13:21:25.554Z,140
2017-10-17T13:22:25.235Z,140
2017-10-17T13:23:24.917Z,135
2017-10-17T13:24:25.566Z,135
2017-10-17T13:25:25.888Z,135
2017-10-17T13:26:25.562Z,135
2017-10-17T13:27:25.595Z,135
2017-10-17T13:28:25.254Z,135
2017-10-17T13:29:25.265Z,135
2017-10-17T13:30:25.916Z,135
2017-10-17T13:31:25.926Z,135
2017-10-17T13:32:25.917Z,135
2017-10-17T13:33:24.947Z,135
2017-10-17T13:34:25.600Z,140
2017-10-17T13:35:25.276Z,140
2017-10-17T13:36:25.932Z,130
2017-10-17T13:37:25.615Z,135
2017-10-17T13:38:26.550Z,135
2017-10-17T13:39:25.629Z,135
2017-10-17T13:40:25.622Z,135
2017-10-17T13:41:25.635Z,135
2017-10-17T13:42:24.988Z,135
2017-10-17T13:43:25.648Z,135
2017-10-17T13:44:25.966Z,135
2017-10-17T13:45:25.338Z,135
2017-10-17T13:46:25.983Z,135
2017-10-17T13:47:25.656Z,130
2017-10-17T13:48:25.659Z,130
2017-10-17T13:49:25.373Z,130
2017-10-17T13:50:25.037Z,130
2017-10-17T13:51:25.990Z,130
2017-10-17T13:52:26.006Z,130
2017-10-17T13:53:25.679Z,130
2017-10-17T13:54:25.042Z,130
2017-10-17T13:55:26.012Z,130
2017-10-17T13:56:25.688Z,130
2017-10-17T13:57:26.012Z,130
2017-10-17T13:58:25.697Z,125
2017-10-17T13:59:25.399Z,125
2017-10-17T14:00:25.806Z,125
2017-10-17T14:01:25.404Z,125
2017-10-17T14:02:25.723Z,125
2017-10-17T14:03:26.037Z,125
2017-10-17T14:04:25.402Z,125
2017-10-17T14:05:25.098Z,125
2017-10-17T14:06:25.726Z,125
2017-10-17T14:07:25.409Z,120
2017-10-17T14:08:28.396Z,120
2017-10-17T14:09:26.069Z,125
2017-10-17T14:10:25.440Z,120
2017-10-17T14:11:25.105Z,120
2017-10-17T14:12:26.085Z,120